Pearl City, Hawaii
Current Conditions -  °F | °C
As of 5:53 PM on Tuesday 21 Oct 2014 (Local Time) from PHNL Reporting Station
Broken Clouds Broken Clouds  
Wind Chill: 82°   Ceiling: 6500
Heat Index: 86°   Visibility: 10mi
Dew Point: 71°   Wind: 14mph
Humidity: 69%   Direction: 70°ENE
Pressure: 29.95"   Gusts: NA
Location:  21.39°N, 157.96°W
Report Text: PHNL 220353Z 07012KT 10SM FEW026 SCT050 BKN065 BKN150 28/22 A2995 RMK AO2 SLP141 T02780217
Loading
Personal Weather Stations






























Interactive Weather Map
Tropical Storm Tracking
New forecast layout! Learn more

10-Day Weather Forecast

Advertisements
Track Severe Weather on mobile